0
31
Dec
21:00

 

Relevé de l'aéroport de Cayenne Félix Éboué

Le 31/12/1969 à 21:00 : Vent nul


Couverture : 3 à 4 octas à 800 m. 5 à 7 octas à 1 200 m. 5 à 7 octas à 1 500 m.
Température : 24°C. Point de rosée : 24°C. Température apparente : 22°C.
Visibilité : Supérieure à 10 000 m.
Pression : 1015 hPa. Humidité : 100.0%.

SOCA 030330Z AUTO 00000KT 9999 SCT026 BKN038 BKN048 24/24 Q1015 NOSIG

Lever du soleil : 06:25 - Coucher : 18:45

Horaires des marées du 21/07/2017
Pour la navigation, vérifiez ces informations sur le site du SHOM.

 MatinSoir
Pleine mer02:57 (3.27 m)15:38 (3.01 m)
Basse mer09:24 (0.63 m)21:37 (0.86 m)

 

Les relevés de Rochambeau sur les dernières 24 heures.